Pagrindinis puslapis
METAR-TAF:

METAR-TAF

Oro uostai :

Šidziadžuangas, Kinija

platuma: 38-16-51N, ilguma: 114-41-48E, Aukštis: 233 m

Dabartinis oras

Ataskaita buvo paskelbta 17 minutes, ne 17:00 UTC
Vėjas 2 kt iš Vakarų
Temperatūra 10°C
Drėgmė 87%
Slėgis 1020 hPa
Matomumas: 3500 m
rūkana

METAR: ZBSJ 201700Z 28001MPS 3500 BR NSC 10/08 Q1020 NOSIG

Laikas: 01:17 (17:17 UTC)

Prognozė

Ataskaita buvo paskelbta 10 valandos ir 8 minutes, ne 07:09 UTC
Prognozė galioja nuo 20 metu 12 UTC su 21 metu 12 UTC
Vėjas 8 kt iš Pietų/Pietryčių
Matomumas: 3000 m
migla
Tapsmas
nuo 20 metu 21 UTC su 20 metu 22 UTC
Matomumas: 2000 m
rūkana
Tapsmas
nuo 21 metu 03 UTC su 21 metu 04 UTC
Matomumas: 3000 m
migla

TAF: ZBSJ 200709Z 2012/2112 15004MPS 3000 HZ NSC TX22/2107Z TN10/2021Z BECMG 2021/2022 2000 BR BECMG 2103/2104 3000 HZ

Orai ataskaitas ir orų prognozės (METAR, TAF).

turimą stotys yra geltonos ir raudonos taškus žemėlapyje.

Perkelti pele per norėdami pamatyti stoties vardą.

Tada spustelėkite, norėdami matyti oro stebėjimo ir prognozės.

Norėdami pakeisti žemėlapį: spustelėkite ant žalios mygtukų su juodo kryžiaus žemyn,; žalią mygtuką su brūkšneliu, jei norite nutolinti; arba žalių rodyklių gretimoms žemėlapius.


METAR-TAF: